»·PEaware :: DAL740 KSEA-KSLC

DAL740 :: KSEA-KSLC

FLIGHT INFORMATION

Flight Status: Arrived
Operator:
Delta Air Lines
More flights by this operator :: More flights under this callsign
Pilot: Joe P. (13940)
Aircraft: BOEING 737-700
(B737)
More flights by this aircraft type
Origin: KSEA Seattle-Tacoma Intl
United States
Destination: KSLC Salt Lake City Intl
United States
More flights between these airports :: More routes between these airports
Route: +SUMMA1 SUMMA J54 BKE BYI SKEES5
File this flight plan on PilotEdge
Remarks: KTWF -PBN / A1B1C1D1L1O1S1 NAV / RNVD1E2A1 DOF / 180812 REG / N389DA EET / KZLC0034 RVR / 200 PER / C
Altitude:
(Current/Filed)
350ft
Speed:
(Current/Filed)
455kts
Departed: 12-Aug-18 11:19 AM
Arrived: 12-Aug-18 12:48 PM
Distance/Time
Traveled:
597nm/1:29
Distance/Time
To Go:
Arrived

Flight Plot

Page will automatically refresh every two minutes.

Flight plan parsing failed; only flown route is shown


Map Options




Map Legend


Flown Route
Filed Route
Departure Airport
Arrival Airport
Navaid (VOR, NDB)
Fix

Horizontal Profiles

Position Reports

Time Latitude Longitude Heading Altitude Ground
Speed
12-Aug-18 10:15 47.441457 -122.301373 45 441ft 0kts
12-Aug-18 10:16 47.441457 -122.301373 45 441ft 0kts
12-Aug-18 10:17 47.441457 -122.301373 45 441ft 0kts
12-Aug-18 10:18 47.441457 -122.301373 45 441ft 0kts
12-Aug-18 10:19 47.441457 -122.301373 45 441ft 0kts
12-Aug-18 10:20 47.441457 -122.301373 45 441ft 0kts
12-Aug-18 10:21 47.441457 -122.301373 45 441ft 0kts
12-Aug-18 10:22 47.441457 -122.301373 45 441ft 0kts
12-Aug-18 10:23 47.441457 -122.301373 45 441ft 0kts
12-Aug-18 10:24 47.441457 -122.301373 45 441ft 0kts
12-Aug-18 10:25 47.441457 -122.301373 45 441ft 0kts
12-Aug-18 10:26 47.441457 -122.301373 45 441ft 0kts
12-Aug-18 10:27 47.441457 -122.301373 45 441ft 0kts
12-Aug-18 10:28 47.441457 -122.301373 45 441ft 0kts
12-Aug-18 10:29 47.441457 -122.301373 45 441ft 0kts
12-Aug-18 10:30 47.441457 -122.301373 45 441ft 0kts
12-Aug-18 10:31 47.441457 -122.301373 45 441ft 0kts
12-Aug-18 10:32 47.441457 -122.301373 45 441ft 0kts
12-Aug-18 10:33 47.441457 -122.301373 45 441ft 0kts
12-Aug-18 10:34 47.441457 -122.301373 45 441ft 0kts
12-Aug-18 10:35 47.441457 -122.301373 45 441ft 0kts
12-Aug-18 10:36 47.441457 -122.301373 45 441ft 0kts
12-Aug-18 10:37 47.441457 -122.301373 45 441ft 0kts
12-Aug-18 10:38 47.441457 -122.301373 45 441ft 0kts
12-Aug-18 10:39 47.441457 -122.301373 45 441ft 0kts
12-Aug-18 10:40 47.441457 -122.301373 45 441ft 0kts
12-Aug-18 10:41 47.441457 -122.301373 45 441ft 0kts
12-Aug-18 10:42 47.441457 -122.301373 45 441ft 0kts
12-Aug-18 10:43 47.441457 -122.301373 45 441ft 0kts
12-Aug-18 10:44 47.441457 -122.301373 45 441ft 0kts
12-Aug-18 10:45 47.441457 -122.301373 45 441ft 0kts
12-Aug-18 10:46 47.441457 -122.301373 45 441ft 0kts
12-Aug-18 10:47 47.441457 -122.301373 45 441ft 0kts
12-Aug-18 10:48 47.441457 -122.301373 45 441ft 0kts
12-Aug-18 10:49 47.441457 -122.301373 45 441ft 0kts
12-Aug-18 10:50 47.441457 -122.301373 45 441ft 0kts
12-Aug-18 10:51 47.441457 -122.301373 45 441ft 0kts
12-Aug-18 10:52 47.441457 -122.301373 45 441ft 0kts
12-Aug-18 10:53 47.441457 -122.301373 45 441ft 0kts
12-Aug-18 10:54 47.441457 -122.301373 45 441ft 0kts
12-Aug-18 10:55 47.441457 -122.301373 45 441ft 0kts
12-Aug-18 10:56 47.441457 -122.301373 45 441ft 0kts
12-Aug-18 10:57 47.441457 -122.301373 45 441ft 0kts
12-Aug-18 10:58 47.441457 -122.301373 45 441ft 0kts
12-Aug-18 10:59 47.441457 -122.301373 45 441ft 0kts
12-Aug-18 11:00 47.441457 -122.301373 45 441ft 0kts
12-Aug-18 11:01 47.441457 -122.301373 45 441ft 0kts
12-Aug-18 11:02 47.441457 -122.301373 45 441ft 0kts
12-Aug-18 11:03 47.441457 -122.301373 45 441ft 0kts
12-Aug-18 11:04 47.441457 -122.301373 45 441ft 0kts
12-Aug-18 11:05 47.441457 -122.301373 45 441ft 0kts
12-Aug-18 11:06 47.441411 -122.301442 45 441ft 2kts
12-Aug-18 11:07 47.441032 -122.302194 78 441ft 2kts
12-Aug-18 11:08 47.441365 -122.302495 173 441ft 2kts
12-Aug-18 11:09 47.441374 -122.302496 173 441ft 0kts
12-Aug-18 11:10 47.441374 -122.302496 173 441ft 0kts
12-Aug-18 11:11 47.441372 -122.302496 173 441ft 0kts
12-Aug-18 11:12 47.441056 -122.302437 173 441ft 8kts
12-Aug-18 11:13 47.439905 -122.304866 269 441ft 15kts
12-Aug-18 11:14 47.442204 -122.306385 0 441ft 16kts
12-Aug-18 11:15 47.447542 -122.306331 0 441ft 22kts
12-Aug-18 11:16 47.453646 -122.306269 0 441ft 25kts
12-Aug-18 11:17 47.460061 -122.306180 1 440ft 17kts
12-Aug-18 11:18 47.462666 -122.306336 318 441ft 0kts
12-Aug-18 11:19 47.462778 -122.307763 201 441ft 4kts
12-Aug-18 11:20 47.457736 -122.307865 180 441ft 104kts
12-Aug-18 11:21 47.411971 -122.307455 180 2998ft 177kts
12-Aug-18 11:22 47.350585 -122.308318 180 4888ft 251kts
12-Aug-18 11:23 47.276303 -122.309338 180 7745ft 286kts
12-Aug-18 11:24 47.195871 -122.286337 158 10911ft 310kts
12-Aug-18 11:25 47.105089 -122.236207 160 12476ft 378kts
12-Aug-18 11:26 47.003905 -122.183591 161 15284ft 393kts
12-Aug-18 11:27 46.899025 -122.129918 162 17865ft 406kts
12-Aug-18 11:28 46.790536 -122.074873 163 20143ft 419kts
12-Aug-18 11:29 46.678417 -122.018602 163 22238ft 431kts
12-Aug-18 11:30 46.585726 -121.907292 123 24013ft 456kts
12-Aug-18 11:31 46.521727 -121.745166 122 25674ft 468kts
12-Aug-18 11:32 46.455791 -121.579959 122 27151ft 477kts
12-Aug-18 11:33 46.388292 -121.412539 123 28497ft 486kts
12-Aug-18 11:34 46.319084 -121.242081 123 29904ft 489kts
12-Aug-18 11:35 46.250685 -121.072800 124 31428ft 488kts
12-Aug-18 11:36 46.181977 -120.904094 125 32832ft 486kts
12-Aug-18 11:37 46.113203 -120.736651 125 34127ft 485kts
12-Aug-18 11:38 46.044148 -120.569638 126 35181ft 488kts
12-Aug-18 11:39 45.974271 -120.401653 126 35187ft 485kts
12-Aug-18 11:40 45.904795 -120.235635 127 35185ft 486kts
12-Aug-18 11:41 45.834914 -120.068751 127 35184ft 487kts
12-Aug-18 11:42 45.764528 -119.903036 127 35186ft 487kts
12-Aug-18 11:43 45.694197 -119.737777 127 35187ft 485kts
12-Aug-18 11:44 45.623273 -119.573549 127 35191ft 485kts
12-Aug-18 11:45 45.552202 -119.409740 128 35193ft 484kts
12-Aug-18 11:46 45.481757 -119.246331 128 35188ft 485kts
12-Aug-18 11:47 45.410724 -119.083010 128 35195ft 484kts
12-Aug-18 11:48 45.339359 -118.920184 128 35198ft 484kts
12-Aug-18 11:49 45.268004 -118.758388 128 35216ft 484kts
12-Aug-18 11:50 45.196300 -118.596738 128 35236ft 484kts
12-Aug-18 11:51 45.124427 -118.435622 128 35235ft 482kts
12-Aug-18 11:52 45.052512 -118.275311 128 35223ft 482kts
12-Aug-18 11:53 44.980638 -118.115243 128 35220ft 482kts
12-Aug-18 11:54 44.908489 -117.956406 129 35218ft 480kts
12-Aug-18 11:55 44.836060 -117.798411 130 35219ft 477kts
12-Aug-18 11:56 44.756677 -117.650537 134 35219ft 474kts
12-Aug-18 11:57 44.676280 -117.503461 133 35218ft 474kts
12-Aug-18 11:58 44.596480 -117.356583 133 35217ft 473kts
12-Aug-18 11:59 44.516799 -117.209905 133 35215ft 473kts
12-Aug-18 12:00 44.436676 -117.063508 133 35212ft 472kts
12-Aug-18 12:01 44.356672 -116.918178 133 35207ft 471kts
12-Aug-18 12:02 44.276615 -116.773515 134 35201ft 471kts
12-Aug-18 12:03 44.196446 -116.629382 134 35195ft 470kts
12-Aug-18 12:04 44.116083 -116.485623 133 35167ft 469kts
12-Aug-18 12:05 44.035931 -116.342947 133 35161ft 469kts
12-Aug-18 12:06 43.955510 -116.200495 133 35162ft 467kts
12-Aug-18 12:07 43.874970 -116.058528 134 35171ft 467kts
12-Aug-18 12:08 43.794550 -115.917462 134 35174ft 467kts
12-Aug-18 12:09 43.713737 -115.776394 134 35186ft 467kts
12-Aug-18 12:10 43.632991 -115.636121 134 35197ft 467kts
12-Aug-18 12:11 43.551856 -115.495852 134 35183ft 467kts
12-Aug-18 12:12 43.470609 -115.356052 134 35181ft 468kts
12-Aug-18 12:13 43.389212 -115.216669 134 35183ft 467kts
12-Aug-18 12:14 43.307638 -115.077632 134 35185ft 467kts
12-Aug-18 12:15 43.239268 -114.961619 134 35193ft 467kts
12-Aug-18 12:16 43.143847 -114.800465 134 35213ft 467kts
12-Aug-18 12:17 43.061801 -114.662597 134 35217ft 467kts
12-Aug-18 12:18 42.979444 -114.524853 134 35224ft 467kts
12-Aug-18 12:19 42.910741 -114.410436 134 35210ft 467kts
12-Aug-18 12:20 42.814519 -114.250918 134 35207ft 468kts
12-Aug-18 12:21 42.745765 -114.136969 134 35203ft 467kts
12-Aug-18 12:22 42.662652 -114.000531 134 35193ft 468kts
12-Aug-18 12:23 42.564579 -113.843128 138 35181ft 465kts
12-Aug-18 12:24 42.487526 -113.740630 140 35180ft 464kts
12-Aug-18 12:25 42.395367 -113.618031 140 35179ft 465kts
12-Aug-18 12:26 42.303348 -113.495870 140 35152ft 465kts
12-Aug-18 12:27 42.210777 -113.373521 139 32483ft 466kts
12-Aug-18 12:28 42.119491 -113.253494 139 30218ft 451kts
12-Aug-18 12:29 42.030959 -113.137397 138 28153ft 435kts
12-Aug-18 12:30 41.945777 -113.025435 138 26144ft 423kts
12-Aug-18 12:31 41.862413 -112.916235 138 24155ft 413kts
12-Aug-18 12:32 41.780580 -112.810118 138 22190ft 406kts
12-Aug-18 12:33 41.700025 -112.706115 138 20232ft 399kts
12-Aug-18 12:34 41.620819 -112.603904 138 18303ft 388kts
12-Aug-18 12:35 41.543373 -112.504631 138 16338ft 384kts
12-Aug-18 12:36 41.463194 -112.418154 135 15224ft 360kts
12-Aug-18 12:37 41.396384 -112.318589 133 14287ft 359kts
12-Aug-18 12:38 41.332279 -112.223935 133 13390ft 319kts
12-Aug-18 12:39 41.276397 -112.141686 133 12688ft 281kts
12-Aug-18 12:40 41.226795 -112.069853 133 11665ft 259kts
12-Aug-18 12:41 41.167673 -112.027151 190 9963ft 255kts
12-Aug-18 12:42 41.099302 -112.033494 175 9026ft 226kts
12-Aug-18 12:43 41.042816 -112.026552 175 8756ft 195kts
12-Aug-18 12:44 40.990964 -112.020481 176 7778ft 178kts
12-Aug-18 12:45 40.943171 -112.014926 176 6862ft 167kts
12-Aug-18 12:46 40.896505 -112.009510 176 5961ft 168kts
12-Aug-18 12:47 40.848872 -112.003992 177 5061ft 183kts
12-Aug-18 12:48 40.799402 -111.998450 176 4235ft 154kts
12-Aug-18 12:49 40.787681 -111.996001 139 4235ft 0kts
12-Aug-18 12:50 40.787642 -111.995958 139 4235ft 3kts
12-Aug-18 12:51 40.787427 -111.994311 71 4235ft 11kts
12-Aug-18 12:52 40.787959 -111.988153 86 4235ft 9kts
12-Aug-18 12:53 40.788773 -111.986037 94 4235ft 5kts
12-Aug-18 12:54 40.788732 -111.985485 95 4235ft 0kts
12-Aug-18 12:55 40.788732 -111.985485 95 4235ft 0kts
12-Aug-18 12:56 40.788732 -111.985485 95 4235ft 0kts
12-Aug-18 12:57 40.788732 -111.985485 95 4235ft 0kts
12-Aug-18 12:58 40.788732 -111.985485 95 4235ft 0kts
12-Aug-18 12:59 40.788732 -111.985485 95 4235ft 0kts
12-Aug-18 13:00 40.788732 -111.985485 95 4235ft 0kts
12-Aug-18 13:01 40.788732 -111.985485 95 4235ft 0kts
12-Aug-18 13:02 40.788732 -111.985485 95 4235ft 0kts
12-Aug-18 13:03 40.788732 -111.985485 95 4235ft 0kts

Navigation Log

Ident Type
Flight plan parsing failed, navigation log unavailable